Time;durP1;ratioP1;P1;durP2;ratioP2;P2;SDS_P1;SDS_P2;PMS_P1;PMS_P2;Temp;Humidity;BMP_temperature;BMP_pressure;BME280_temperature;BME280_humidity;BME280_pressure;Samples;Min_cycle;Max_cycle;Signal;HPM_P1;HPM_P2
2022/05/14 00:01:58;;;;;;;6.60;2.33;;;13.00;74.20;;;;;;4982164;28;20042;-79
2022/05/14 00:04:24;;;;;;;8.90;3.28;;;13.00;73.60;;;;;;4982222;28;20168;-79
2022/05/14 00:06:51;;;;;;;9.20;3.30;;;13.00;73.40;;;;;;4983158;28;20125;-79
2022/05/14 00:09:16;;;;;;;7.45;2.60;;;12.90;74.50;;;;;;4973963;28;20364;-79
2022/05/14 00:14:26;;;;;;;4.75;2.50;;;13.10;75.10;;;;;;4996206;28;20041;-80
2022/05/14 00:16:51;;;;;;;4.70;2.40;;;13.10;74.80;;;;;;4995709;28;20038;-79
2022/05/14 00:19:17;;;;;;;4.97;2.80;;;13.20;77.40;;;;;;4985344;28;20041;-79
2022/05/14 00:21:43;;;;;;;5.97;2.60;;;13.00;75.80;;;;;;4986870;28;20030;-79
2022/05/14 00:24:08;;;;;;;8.25;3.45;;;12.10;77.00;;;;;;4986491;28;20153;-79
2022/05/14 00:26:35;;;;;;;3.65;2.13;;;12.70;82.00;;;;;;4981466;28;20101;-79
2022/05/14 00:29:00;;;;;;;7.57;2.50;;;12.80;79.40;;;;;;4967986;28;20035;-79
2022/05/14 00:31:26;;;;;;;10.30;2.97;;;13.20;80.50;;;;;;4961618;28;20036;-79
2022/05/14 00:33:51;;;;;;;8.95;3.72;;;13.00;79.90;;;;;;4977788;28;20041;-79
2022/05/14 00:36:17;;;;;;;3.90;1.88;;;12.60;79.10;;;;;;4978720;28;20034;-80
2022/05/14 00:38:43;;;;;;;4.80;2.10;;;12.40;81.80;;;;;;4966611;28;20171;-79
2022/05/14 00:41:08;;;;;;;5.50;2.15;;;12.90;81.60;;;;;;4997501;28;20029;-79
2022/05/14 00:43:45;;;;;;;6.72;2.80;;;13.00;83.30;;;;;;4982782;28;20069;-79
2022/05/14 00:46:14;;;;;;;5.72;2.20;;;13.10;84.40;;;;;;4984491;28;20056;-79
2022/05/14 00:48:41;;;;;;;7.40;2.80;;;12.90;84.50;;;;;;4978577;28;20034;-79
2022/05/14 00:51:06;;;;;;;4.88;1.48;;;13.30;87.20;;;;;;4984823;28;20382;-79
2022/05/14 00:53:37;;;;;;;6.38;2.35;;;12.90;87.10;;;;;;4981502;28;20035;-79
2022/05/14 00:56:04;;;;;;;4.00;2.10;;;12.70;86.80;;;;;;4984971;28;20172;-79
2022/05/14 00:58:38;;;;;;;3.42;2.08;;;12.80;86.10;;;;;;4963483;28;20022;-79
2022/05/14 01:01:03;;;;;;;2.08;1.70;;;12.80;87.90;;;;;;4982519;28;20083;-79
2022/05/14 01:03:29;;;;;;;5.78;2.13;;;12.80;88.00;;;;;;4992820;28;20042;-79
2022/05/14 01:05:55;;;;;;;6.65;3.22;;;12.50;89.60;;;;;;4981288;28;20520;-79
2022/05/14 01:08:20;;;;;;;3.53;1.50;;;12.80;90.30;;;;;;4983138;28;20070;-79
2022/05/14 01:10:46;;;;;;;5.25;2.13;;;13.40;91.00;;;;;;4997559;28;20129;-79
2022/05/14 01:13:11;;;;;;;3.25;1.65;;;13.20;91.60;;;;;;4980950;28;20061;-80
2022/05/14 01:15:58;;;;;;;4.07;1.83;;;12.60;91.10;;;;;;4993981;28;20038;-79
2022/05/14 01:18:26;;;;;;;2.85;1.90;;;12.50;92.10;;;;;;4995959;28;20055;-79
2022/05/14 01:21:04;;;;;;;3.72;2.25;;;12.50;91.30;;;;;;4985749;28;20321;-79
2022/05/14 01:26:48;;;;;;;;;;;12.50;92.80;;;;;;4996034;28;20049;-79
2022/05/14 01:29:15;;;;;;;2.83;1.87;;;12.70;92.30;;;;;;4993878;28;19909;-79
2022/05/14 01:31:40;;;;;;;7.70;3.55;;;12.30;92.50;;;;;;4983675;28;20117;-79
2022/05/14 01:34:08;;;;;;;4.80;2.67;;;12.50;93.30;;;;;;4980103;28;20601;-79
2022/05/14 01:36:34;;;;;;;7.32;3.03;;;12.20;93.10;;;;;;4981012;28;20049;-79
2022/05/14 01:39:00;;;;;;;8.52;3.03;;;12.10;93.80;;;;;;4994716;28;20030;-79
2022/05/14 01:41:25;;;;;;;7.25;3.40;;;12.00;93.80;;;;;;4983068;28;20049;-79
2022/05/14 01:43:51;;;;;;;11.13;4.10;;;12.10;94.20;;;;;;4964802;28;20038;-79
2022/05/14 01:46:18;;;;;;;3.55;1.88;;;11.90;94.10;;;;;;4998519;28;20536;-79
2022/05/14 01:48:43;;;;;;;8.50;3.40;;;11.80;94.80;;;;;;4984833;28;20486;-79
2022/05/14 01:51:09;;;;;;;5.35;2.35;;;11.70;95.10;;;;;;4988409;28;20040;-79
2022/05/14 01:53:35;;;;;;;8.82;3.92;;;11.70;95.40;;;;;;4988584;28;20049;-79
2022/05/14 01:56:00;;;;;;;10.63;4.15;;;11.60;95.80;;;;;;4995833;28;20034;-78
2022/05/14 01:58:37;;;;;;;10.35;3.35;;;11.50;96.80;;;;;;5000598;28;20478;-79
2022/05/14 02:01:27;;;;;;;6.40;2.72;;;11.80;98.50;;;;;;4972335;28;20493;-79
2022/05/14 02:04:00;;;;;;;3.63;2.25;;;12.00;96.50;;;;;;4981777;28;20034;-79
2022/05/14 02:06:27;;;;;;;6.53;2.58;;;11.80;96.70;;;;;;4988220;28;20037;-79
2022/05/14 02:08:52;;;;;;;5.82;2.90;;;11.70;96.30;;;;;;4987366;28;20053;-79
2022/05/14 02:11:21;;;;;;;10.15;4.07;;;11.80;96.80;;;;;;4998152;28;20071;-81
2022/05/14 02:13:46;;;;;;;9.43;4.47;;;11.60;96.20;;;;;;4982391;28;20026;-80
2022/05/14 02:16:12;;;;;;;4.22;2.58;;;11.50;97.10;;;;;;4988480;28;20095;-81
2022/05/14 02:18:38;;;;;;;7.53;2.97;;;11.40;98.20;;;;;;4987542;28;20061;-80
2022/05/14 02:21:04;;;;;;;8.80;3.88;;;11.50;97.10;;;;;;4996959;28;20040;-80
2022/05/14 02:23:30;;;;;;;12.15;5.00;;;11.40;97.60;;;;;;4976950;28;20050;-80
2022/05/14 02:25:55;;;;;;;12.68;4.90;;;11.40;99.60;;;;;;4997094;28;20046;-80
2022/05/14 02:28:21;;;;;;;11.27;3.78;;;11.30;99.90;;;;;;4997514;28;20041;-80
2022/05/14 02:30:46;;;;;;;9.25;3.95;;;11.50;99.90;;;;;;4982511;28;20125;-80
2022/05/14 02:33:12;;;;;;;6.68;2.83;;;11.40;99.20;;;;;;5000353;28;20030;-81
2022/05/14 02:35:38;;;;;;;10.77;3.70;;;11.40;99.90;;;;;;4996590;28;20038;-80
2022/05/14 02:38:03;;;;;;;6.05;2.75;;;11.30;99.90;;;;;;4983786;28;20516;-80
2022/05/14 02:40:29;;;;;;;8.40;4.07;;;11.30;99.80;;;;;;4965393;28;20038;-80
2022/05/14 02:42:55;;;;;;;9.10;3.67;;;11.00;99.90;;;;;;4970723;28;20117;-80
2022/05/14 02:45:21;;;;;;;4.50;2.47;;;11.10;99.90;;;;;;4999139;28;20038;-80
2022/05/14 02:47:46;;;;;;;7.50;2.70;;;11.30;99.90;;;;;;4998113;28;20029;-80
2022/05/14 02:50:12;;;;;;;9.15;3.55;;;11.30;99.90;;;;;;4995666;28;20054;-80
2022/05/14 02:52:38;;;;;;;9.77;3.60;;;11.10;99.90;;;;;;4970528;28;20034;-80
2022/05/14 02:55:04;;;;;;;6.95;2.90;;;11.40;99.90;;;;;;4969269;28;20361;-80
2022/05/14 02:57:29;;;;;;;5.15;2.25;;;11.00;99.90;;;;;;4985236;28;20031;-81
2022/05/14 02:59:55;;;;;;;6.15;3.00;;;11.00;99.90;;;;;;4998321;28;20076;-80
2022/05/14 03:02:20;;;;;;;5.10;2.60;;;11.10;99.90;;;;;;4999094;28;20089;-80
2022/05/14 03:04:48;;;;;;;5.55;2.38;;;11.10;99.90;;;;;;4984888;28;20025;-80
2022/05/14 03:07:15;;;;;;;4.88;2.75;;;11.40;99.90;;;;;;5002999;28;20061;-79
2022/05/14 03:09:40;;;;;;;7.03;4.07;;;11.40;99.90;;;;;;4984340;28;20117;-80
2022/05/14 03:12:07;;;;;;;4.07;2.55;;;11.30;99.90;;;;;;4983394;28;20296;-80
2022/05/14 03:14:33;;;;;;;8.32;3.40;;;11.20;99.90;;;;;;4983646;28;20033;-80
2022/05/14 03:16:59;;;;;;;5.10;2.78;;;11.40;99.90;;;;;;5000521;28;20473;-80
2022/05/14 03:19:24;;;;;;;6.70;2.50;;;11.50;99.90;;;;;;4984740;28;20037;-80
2022/05/14 03:21:50;;;;;;;4.18;2.22;;;11.50;99.90;;;;;;4981820;28;20092;-80
2022/05/14 03:24:16;;;;;;;6.18;1.98;;;11.50;99.90;;;;;;4985057;28;20045;-80
2022/05/14 03:26:41;;;;;;;7.18;2.70;;;11.50;99.90;;;;;;4987288;28;20046;-80
2022/05/14 03:29:07;;;;;;;6.00;2.50;;;11.40;99.90;;;;;;4991016;28;20036;-80
2022/05/14 03:31:33;;;;;;;7.40;2.97;;;11.40;99.90;;;;;;4967793;28;20125;-80
2022/05/14 03:33:59;;;;;;;4.57;2.25;;;11.20;99.90;;;;;;4996459;28;20535;-80
2022/05/14 03:36:24;;;;;;;5.75;2.78;;;11.20;99.90;;;;;;4983285;28;20104;-80
2022/05/14 03:38:50;;;;;;;6.05;2.55;;;11.30;99.90;;;;;;4996957;28;20117;-82
2022/05/14 03:41:16;;;;;;;6.15;2.70;;;11.30;99.90;;;;;;4985759;28;20121;-80
2022/05/14 03:43:43;;;;;;;7.65;2.40;;;11.20;99.90;;;;;;4971278;28;20048;-80
2022/05/14 03:46:10;;;;;;;8.65;3.72;;;11.30;99.90;;;;;;4984235;28;20038;-80
2022/05/14 03:48:36;;;;;;;4.38;2.45;;;11.40;99.90;;;;;;4981559;28;20039;-80
2022/05/14 03:51:02;;;;;;;3.33;2.60;;;11.30;99.90;;;;;;4994083;28;20366;-81
2022/05/14 03:53:28;;;;;;;9.85;3.28;;;11.30;99.90;;;;;;4968431;28;20537;-81
2022/05/14 03:55:53;;;;;;;6.40;2.47;;;11.00;99.90;;;;;;4970998;28;20505;-81
2022/05/14 03:58:19;;;;;;;5.72;2.25;;;11.10;99.90;;;;;;4983714;28;20125;-80
2022/05/14 04:00:44;;;;;;;4.03;2.10;;;11.00;99.90;;;;;;4996345;28;20052;-80
2022/05/14 04:03:10;;;;;;;4.80;2.47;;;11.10;99.90;;;;;;4995676;28;20038;-80
2022/05/14 04:05:36;;;;;;;6.25;2.20;;;11.30;99.90;;;;;;4982969;28;20041;-81
2022/05/14 04:08:01;;;;;;;8.35;3.03;;;11.40;99.90;;;;;;4968261;28;20674;-81
2022/05/14 04:10:27;;;;;;;5.15;2.60;;;11.20;99.90;;;;;;4981841;28;20049;-80
2022/05/14 04:12:53;;;;;;;5.00;2.08;;;11.20;99.90;;;;;;4981508;28;20117;-81
2022/05/14 04:15:19;;;;;;;3.90;1.92;;;11.30;99.90;;;;;;4986166;28;20030;-80
2022/05/14 04:17:44;;;;;;;3.50;2.28;;;11.10;99.90;;;;;;4981927;28;20018;-81
2022/05/14 04:20:10;;;;;;;4.63;1.70;;;11.20;99.90;;;;;;4984912;28;20022;-81
2022/05/14 04:22:36;;;;;;;10.82;2.90;;;11.20;99.90;;;;;;4983160;28;20035;-81
2022/05/14 04:25:01;;;;;;;6.60;2.20;;;11.30;99.90;;;;;;4990512;28;20118;-80
2022/05/14 04:27:27;;;;;;;3.58;1.88;;;11.40;99.90;;;;;;4979852;28;20126;-80
2022/05/14 04:29:52;;;;;;;8.70;2.75;;;11.30;99.90;;;;;;4978204;28;20121;-80
2022/05/14 04:32:18;;;;;;;3.60;2.13;;;11.40;99.90;;;;;;4982064;28;20037;-80
2022/05/14 04:34:45;;;;;;;8.73;3.03;;;11.40;99.90;;;;;;4968782;28;20072;-80
2022/05/14 04:37:10;;;;;;;9.57;2.90;;;11.40;99.90;;;;;;4984905;28;20103;-80
2022/05/14 04:39:36;;;;;;;2.55;1.80;;;11.30;99.90;;;;;;4984410;28;20038;-81
2022/05/14 04:42:05;;;;;;;3.80;1.88;;;11.40;99.90;;;;;;4983926;28;20038;-80
2022/05/14 04:44:33;;;;;;;3.72;1.60;;;11.50;99.90;;;;;;4980963;28;20395;-81
2022/05/14 04:47:00;;;;;;;7.82;2.10;;;11.60;99.90;;;;;;4995265;28;20034;-80
2022/05/14 04:49:27;;;;;;;4.82;2.05;;;11.70;99.90;;;;;;4965711;28;20393;-81
2022/05/14 04:51:53;;;;;;;5.43;2.30;;;11.70;99.90;;;;;;4997350;28;20117;-80
2022/05/14 04:54:18;;;;;;;6.60;2.38;;;11.80;99.90;;;;;;4983425;28;20038;-80
2022/05/14 04:56:44;;;;;;;8.02;1.88;;;11.80;99.90;;;;;;4981270;28;20036;-81
2022/05/14 04:59:10;;;;;;;4.03;1.33;;;11.90;99.90;;;;;;4997997;28;20034;-80
2022/05/14 05:01:35;;;;;;;7.25;2.10;;;12.10;99.90;;;;;;4954673;28;20038;-81
2022/05/14 05:04:02;;;;;;;6.35;2.00;;;12.10;99.90;;;;;;4983012;28;20033;-81
2022/05/14 05:06:28;;;;;;;2.92;1.60;;;12.20;99.90;;;;;;4984855;28;20042;-80
2022/05/14 05:08:54;;;;;;;3.75;1.67;;;12.30;99.90;;;;;;4997425;28;20057;-81
2022/05/14 05:11:19;;;;;;;6.25;1.98;;;12.20;99.90;;;;;;4980989;28;20188;-81
2022/05/14 05:13:45;;;;;;;3.05;1.60;;;12.40;99.90;;;;;;4985472;28;20111;-81
2022/05/14 05:16:10;;;;;;;6.55;1.90;;;12.60;99.90;;;;;;4982118;28;20544;-81
2022/05/14 05:18:36;;;;;;;3.60;1.63;;;12.60;99.90;;;;;;4967991;28;20057;-81
2022/05/14 05:21:03;;;;;;;4.10;1.50;;;12.70;99.90;;;;;;4980126;28;20030;-81
2022/05/14 05:23:28;;;;;;;5.47;1.70;;;12.80;99.30;;;;;;4975396;28;20096;-81
2022/05/14 05:25:55;;;;;;;4.40;1.52;;;12.90;99.90;;;;;;4984514;28;20089;-80
2022/05/14 05:28:20;;;;;;;8.18;1.88;;;12.50;98.80;;;;;;4996163;28;20069;-81
2022/05/14 05:30:46;;;;;;;8.68;2.72;;;13.20;98.80;;;;;;4997998;28;20061;-81
2022/05/14 05:33:13;;;;;;;3.72;1.40;;;13.20;99.90;;;;;;4976914;28;20042;-81
2022/05/14 05:35:39;;;;;;;6.32;2.40;;;13.30;97.60;;;;;;4975387;28;20038;-81
2022/05/14 05:38:05;;;;;;;4.68;1.95;;;13.40;98.60;;;;;;4982267;28;20513;-81
2022/05/14 05:40:30;;;;;;;7.13;1.88;;;13.60;98.30;;;;;;4979899;28;20026;-82
2022/05/14 05:42:56;;;;;;;8.40;3.78;;;13.20;97.70;;;;;;4982080;28;20478;-81
2022/05/14 05:45:21;;;;;;;6.38;1.85;;;13.70;99.30;;;;;;4977177;28;20113;-81
2022/05/14 05:47:47;;;;;;;7.72;2.53;;;13.90;97.10;;;;;;4981675;28;20026;-82
2022/05/14 05:50:12;;;;;;;8.27;2.20;;;13.90;97.60;;;;;;4996982;28;20034;-82
2022/05/14 05:52:38;;;;;;;6.60;2.05;;;14.00;97.60;;;;;;4991740;28;20038;-81
2022/05/14 05:57:48;;;;;;;6.57;1.75;;;14.20;96.60;;;;;;4979166;28;20107;-82
2022/05/14 06:00:18;;;;;;;7.07;3.05;;;13.90;96.90;;;;;;4999801;28;20064;-81
2022/05/14 06:02:44;;;;;;;4.25;1.92;;;14.50;97.80;;;;;;4981273;28;20030;-82
2022/05/14 06:05:09;;;;;;;5.80;2.05;;;15.10;96.50;;;;;;4982526;28;20034;-82
2022/05/14 06:07:35;;;;;;;3.72;2.25;;;14.70;96.90;;;;;;4982523;28;20535;-82
2022/05/14 06:10:01;;;;;;;10.10;2.95;;;14.60;95.10;;;;;;4983695;28;20038;-81
2022/05/14 06:12:27;;;;;;;4.88;2.30;;;14.70;97.50;;;;;;4975109;28;20030;-82
2022/05/14 06:14:52;;;;;;;7.72;2.22;;;14.90;94.70;;;;;;4994064;28;20371;-82
2022/05/14 06:17:18;;;;;;;6.93;3.67;;;15.00;96.00;;;;;;4982202;28;20030;-82
2022/05/14 06:19:43;;;;;;;4.70;1.70;;;15.30;95.80;;;;;;4992577;28;20026;-82
2022/05/14 06:22:10;;;;;;;6.65;2.65;;;15.50;95.80;;;;;;4983853;28;20053;-82
2022/05/14 06:24:36;;;;;;;8.82;2.42;;;15.60;95.00;;;;;;4963079;28;20069;-82
2022/05/14 06:27:02;;;;;;;9.48;2.55;;;15.20;93.60;;;;;;4997150;28;20037;-82
2022/05/14 06:29:28;;;;;;;7.95;2.67;;;15.20;94.10;;;;;;4979546;28;20030;-81
2022/05/14 06:31:54;;;;;;;14.18;3.33;;;15.90;96.00;;;;;;4982176;28;20038;-81
2022/05/14 06:34:20;;;;;;;8.98;3.63;;;16.00;94.50;;;;;;4985422;28;20401;-81
2022/05/14 06:36:45;;;;;;;4.95;2.45;;;16.50;95.20;;;;;;4986381;28;20048;-82
2022/05/14 06:39:11;;;;;;;11.50;2.65;;;17.00;96.20;;;;;;5003986;28;20515;-82
2022/05/14 06:41:38;;;;;;;6.03;2.63;;;17.40;95.50;;;;;;4982080;28;20076;-82
2022/05/14 06:44:04;;;;;;;7.63;3.72;;;17.20;93.00;;;;;;4972466;28;20030;-82
2022/05/14 06:46:29;;;;;;;10.13;4.28;;;17.30;94.20;;;;;;4985476;28;20035;-82
2022/05/14 06:48:55;;;;;;;6.05;3.08;;;17.50;94.00;;;;;;4983847;28;20038;-83
2022/05/14 06:51:22;;;;;;;10.63;4.00;;;17.40;93.80;;;;;;4996805;28;20032;-83
2022/05/14 06:53:48;;;;;;;11.38;4.43;;;17.50;92.20;;;;;;4987888;28;20504;-83
2022/05/14 06:56:13;;;;;;;10.50;3.55;;;17.70;93.90;;;;;;4989397;28;20030;-83
2022/05/14 06:58:40;;;;;;;8.15;3.45;;;18.20;91.10;;;;;;4980388;28;20526;-82
2022/05/14 07:01:05;;;;;;;11.82;4.90;;;18.30;92.80;;;;;;4984694;28;20033;-83
2022/05/14 07:09:01;;;;;;;13.75;5.25;;;18.50;92.70;;;;;;4986088;28;20061;-83
2022/05/14 07:11:26;;;;;;;10.35;4.45;;;18.70;91.80;;;;;;4997651;28;20049;-83
2022/05/14 07:13:52;;;;;;;11.95;4.38;;;18.80;92.00;;;;;;4979338;28;20474;-83
2022/05/14 07:16:17;;;;;;;7.78;3.92;;;19.20;92.20;;;;;;4982817;28;20343;-83
2022/05/14 07:18:43;;;;;;;15.32;6.80;;;19.50;91.50;;;;;;4986622;28;20500;-83
2022/05/14 07:21:09;;;;;;;7.65;3.33;;;19.60;91.50;;;;;;4998959;28;20064;-83
2022/05/14 07:23:34;;;;;;;12.10;4.15;;;19.50;90.10;;;;;;5000398;28;20037;-83
2022/05/14 07:26:04;;;;;;;14.77;4.38;;;19.60;90.10;;;;;;4981587;28;20072;-83
2022/05/14 07:28:36;;;;;;;6.03;2.58;;;19.30;86.30;;;;;;4987873;28;20117;-83
2022/05/14 07:31:01;;;;;;;9.35;4.15;;;19.40;90.60;;;;;;4979703;28;20342;-84
2022/05/14 07:33:28;;;;;;;6.45;3.40;;;20.00;90.60;;;;;;4976511;28;20493;-84
2022/05/14 07:35:54;;;;;;;8.45;3.17;;;20.00;87.40;;;;;;4982703;28;20058;-84
2022/05/14 07:38:19;;;;;;;13.32;5.82;;;19.90;84.20;;;;;;4966896;28;20042;-84
2022/05/14 07:40:45;;;;;;;8.73;4.10;;;19.80;86.20;;;;;;4986983;28;20038;-84
2022/05/14 07:43:15;;;;;;;13.57;3.30;;;20.00;83.50;;;;;;5000434;28;20425;-84
2022/05/14 07:45:42;;;;;;;8.73;3.78;;;19.60;83.10;;;;;;4984309;28;20042;-84
2022/05/14 07:48:11;;;;;;;5.72;2.85;;;20.00;82.80;;;;;;4987773;28;20445;-84
2022/05/14 07:50:37;;;;;;;11.35;3.03;;;20.50;86.30;;;;;;4968386;28;20088;-84
2022/05/14 07:53:03;;;;;;;7.82;2.70;;;20.90;84.00;;;;;;4981711;28;20030;-84
2022/05/14 07:55:28;;;;;;;4.88;2.22;;;20.30;80.60;;;;;;4988128;28;20022;-84
2022/05/14 07:57:54;;;;;;;13.27;2.97;;;20.50;81.10;;;;;;4961051;28;20433;-84
2022/05/14 08:00:20;;;;;;;11.13;3.90;;;20.70;81.70;;;;;;4981749;28;20474;-84
2022/05/14 08:02:46;;;;;;;3.88;1.90;;;21.30;85.70;;;;;;4972198;28;20021;-84
2022/05/14 08:05:12;;;;;;;7.72;3.47;;;21.80;81.20;;;;;;4988406;28;20036;-84
2022/05/14 08:07:38;;;;;;;8.35;2.50;;;21.60;79.70;;;;;;4985669;28;20040;-84
2022/05/14 08:10:04;;;;;;;8.07;2.65;;;21.40;78.90;;;;;;4996377;28;20025;-85
2022/05/14 08:12:43;;;;;;;13.25;2.95;;;21.10;78.00;;;;;;4975296;28;20042;-85
2022/05/14 08:15:10;;;;;;;12.27;2.63;;;21.50;78.10;;;;;;4971936;28;20521;-84
2022/05/14 08:17:35;;;;;;;9.68;3.10;;;21.60;80.80;;;;;;4983804;28;20557;-86
2022/05/14 08:20:02;;;;;;;8.98;3.15;;;22.10;81.90;;;;;;4972576;28;20018;-84
2022/05/14 08:25:12;;;;;;;9.95;2.35;;;22.60;79.70;;;;;;4976719;28;20037;-84
2022/05/14 08:30:33;;;;;;;5.78;2.00;;;22.70;77.90;;;;;;4967285;28;20048;-85
2022/05/14 08:32:58;;;;;;;7.72;2.20;;;23.10;78.40;;;;;;4978005;28;20030;-85
2022/05/14 08:35:24;;;;;;;7.97;2.65;;;23.20;77.50;;;;;;4996714;28;20140;-85
2022/05/14 08:37:50;;;;;;;8.73;2.78;;;22.70;75.00;;;;;;4985481;28;20129;-85
2022/05/14 08:40:29;;;;;;;8.23;2.65;;;22.70;76.60;;;;;;4979554;28;20366;-85
2022/05/14 08:43:02;;;;;;;9.52;2.83;;;23.30;75.30;;;;;;4966544;28;20029;-85
2022/05/14 08:45:29;;;;;;;5.93;2.45;;;23.40;76.60;;;;;;4982653;28;20026;-85
2022/05/14 08:47:57;;;;;;;10.20;2.92;;;23.50;73.40;;;;;;4970079;28;20163;-86
2022/05/14 08:50:25;;;;;;;6.90;2.40;;;23.20;72.50;;;;;;4998236;28;20117;-86
2022/05/14 08:52:50;;;;;;;11.60;2.53;;;23.50;74.90;;;;;;4970462;28;20616;-86
2022/05/14 08:55:17;;;;;;;5.07;2.35;;;23.90;75.40;;;;;;4984409;28;20105;-85
2022/05/14 08:58:13;;;;;;;4.30;1.92;;;24.20;73.90;;;;;;4980772;28;20445;-85
2022/05/14 09:00:39;;;;;;;6.35;2.80;;;24.20;73.50;;;;;;4999982;28;20469;-86
2022/05/14 09:03:04;;;;;;;7.05;2.58;;;24.20;74.50;;;;;;4978331;28;20027;-86
2022/05/14 09:05:32;;;;;;;5.13;2.42;;;24.30;72.90;;;;;;4986118;28;20023;-85
2022/05/14 09:07:58;;;;;;;5.63;2.38;;;24.30;73.20;;;;;;4981266;28;20041;-87
2022/05/14 09:10:26;;;;;;;8.93;3.00;;;24.40;72.90;;;;;;4984291;28;20018;-86
2022/05/14 09:13:00;;;;;;;10.38;2.83;;;24.70;72.90;;;;;;4969944;28;20148;-86
2022/05/14 09:15:29;;;;;;;8.35;2.08;;;25.00;72.20;;;;;;4981330;28;20398;-85
2022/05/14 09:18:11;;;;;;;6.75;1.70;;;25.30;70.30;;;;;;4987281;28;20390;-85
2022/05/14 09:20:44;;;;;;;4.60;2.08;;;25.20;70.30;;;;;;4984359;28;20040;-85
2022/05/14 09:23:10;;;;;;;14.93;3.65;;;25.40;70.20;;;;;;4994973;28;20513;-85
2022/05/14 09:25:39;;;;;;;5.07;1.83;;;25.30;70.30;;;;;;4960409;28;20061;-86
2022/05/14 09:28:12;;;;;;;5.72;2.25;;;25.40;69.40;;;;;;4966845;28;20549;-85
2022/05/14 09:30:43;;;;;;;7.43;2.40;;;25.50;69.40;;;;;;4975445;28;20465;-85
2022/05/14 09:33:21;;;;;;;5.85;2.40;;;25.70;67.90;;;;;;4984315;28;20108;-85
2022/05/14 09:35:53;;;;;;;8.57;2.47;;;25.80;68.30;;;;;;4971429;28;20033;-85
2022/05/14 09:38:21;;;;;;;5.85;2.08;;;26.00;67.70;;;;;;4997179;28;20062;-84
2022/05/14 09:40:46;;;;;;;10.48;1.90;;;25.90;67.90;;;;;;4982044;28;20034;-85
2022/05/14 09:43:15;;;;;;;10.80;2.85;;;26.00;67.10;;;;;;4997634;28;20373;-84
2022/05/14 09:45:43;;;;;;;5.18;1.80;;;26.30;64.90;;;;;;4999893;28;20037;-84
2022/05/14 09:48:10;;;;;;;12.63;3.45;;;26.40;65.60;;;;;;4984671;28;20386;-84
2022/05/14 09:50:35;;;;;;;12.27;3.13;;;26.50;65.20;;;;;;4983365;28;20042;-84
2022/05/14 09:53:05;;;;;;;5.47;2.08;;;26.70;65.40;;;;;;4966689;28;20045;-84
2022/05/14 09:55:58;;;;;;;6.60;2.03;;;26.60;65.10;;;;;;4987195;28;20034;-84
2022/05/14 09:58:32;;;;;;;7.75;2.40;;;26.70;65.50;;;;;;4975735;28;20041;-83
2022/05/14 10:01:07;;;;;;;9.10;2.30;;;26.80;64.40;;;;;;4986810;28;20506;-83
2022/05/14 10:04:17;;;;;;;7.40;1.88;;;26.70;64.80;;;;;;4994403;28;20038;-83
2022/05/14 10:07:18;;;;;;;5.95;2.55;;;27.00;64.60;;;;;;4962758;28;20145;-82
2022/05/14 10:09:47;;;;;;;7.88;2.15;;;27.20;63.90;;;;;;4998627;28;20033;-82
2022/05/14 10:12:34;;;;;;;7.38;2.70;;;27.40;62.20;;;;;;4982627;28;20061;-82
2022/05/14 10:15:05;;;;;;;7.13;2.08;;;27.60;60.50;;;;;;5015584;28;20038;-82
2022/05/14 10:17:57;;;;;;;8.88;2.03;;;27.90;58.80;;;;;;4990103;28;20030;-82
2022/05/14 10:20:51;;;;;;;5.57;1.75;;;28.20;60.50;;;;;;4981456;28;20129;-82
2022/05/14 10:26:46;;;;;;;5.97;1.58;;;28.40;57.80;;;;;;5000648;28;20045;-81
2022/05/14 10:29:33;;;;;;;6.55;2.22;;;28.40;60.40;;;;;;4983270;28;20418;-81
2022/05/14 10:32:02;;;;;;;7.47;2.22;;;28.70;57.80;;;;;;4984842;28;20030;-81
2022/05/14 10:34:48;;;;;;;9.02;2.38;;;29.20;55.20;;;;;;4998796;28;20031;-81
2022/05/14 10:37:31;;;;;;;6.60;2.70;;;29.30;58.00;;;;;;4997019;28;20560;-81
2022/05/14 10:40:10;;;;;;;8.38;2.20;;;29.50;55.30;;;;;;4988221;28;20035;-81
2022/05/14 10:42:41;;;;;;;7.82;1.90;;;29.40;54.30;;;;;;5001464;28;20145;-80
2022/05/14 10:45:10;;;;;;;7.95;2.72;;;29.50;54.30;;;;;;4995303;28;20033;-80
2022/05/14 10:47:39;;;;;;;8.57;2.38;;;29.70;53.70;;;;;;4987609;28;20046;-80
2022/05/14 10:50:23;;;;;;;7.88;2.25;;;29.80;55.70;;;;;;4987064;28;20034;-79
2022/05/14 10:52:50;;;;;;;8.32;2.90;;;30.10;55.30;;;;;;4976085;28;20038;-80
2022/05/14 10:55:18;;;;;;;5.13;2.17;;;30.30;55.30;;;;;;5001504;28;20453;-80
2022/05/14 10:57:45;;;;;;;3.70;1.73;;;30.60;52.70;;;;;;4968999;28;20049;-80
2022/05/14 11:00:24;;;;;;;9.93;2.90;;;30.60;53.80;;;;;;4973427;28;20605;-80
2022/05/14 11:03:09;;;;;;;9.20;2.45;;;30.70;53.60;;;;;;4989736;28;20038;-79
2022/05/14 11:05:36;;;;;;;8.77;2.50;;;31.00;53.40;;;;;;5000376;28;20410;-79
2022/05/14 11:08:13;;;;;;;7.18;1.95;;;31.00;52.10;;;;;;4971674;28;20026;-79
2022/05/14 11:10:39;;;;;;;7.25;2.35;;;30.90;52.00;;;;;;4980890;28;20084;-80
2022/05/14 11:13:15;;;;;;;6.78;1.70;;;30.80;53.10;;;;;;4982575;28;20397;-79
2022/05/14 11:15:41;;;;;;;9.93;2.30;;;30.80;52.70;;;;;;4999048;28;20030;-79
2022/05/14 11:18:15;;;;;;;8.05;2.50;;;30.90;51.60;;;;;;4970453;28;20089;-80
2022/05/14 11:20:53;;;;;;;4.38;1.67;;;31.00;51.00;;;;;;4982430;28;20117;-81
2022/05/14 11:23:18;;;;;;;6.97;1.63;;;31.00;52.10;;;;;;4972698;28;20049;-80
2022/05/14 11:25:44;;;;;;;10.70;2.30;;;31.10;51.30;;;;;;4987948;28;20030;-80
2022/05/14 11:28:12;;;;;;;9.85;2.92;;;31.10;49.80;;;;;;4981460;28;20035;-80
2022/05/14 11:30:40;;;;;;;6.53;1.95;;;31.60;48.90;;;;;;4985134;28;20039;-81
2022/05/14 11:33:17;;;;;;;6.78;2.22;;;31.40;50.50;;;;;;4998084;28;20116;-80
2022/05/14 11:35:43;;;;;;;9.25;3.15;;;31.50;50.30;;;;;;4986871;28;20402;-79
2022/05/14 11:38:33;;;;;;;9.20;3.60;;;31.50;49.70;;;;;;4984946;28;20041;-80
2022/05/14 11:41:21;;;;;;;8.82;3.53;;;31.40;49.20;;;;;;4993691;28;20030;-80
2022/05/14 11:43:48;;;;;;;8.02;2.80;;;31.40;48.90;;;;;;4976844;28;20172;-79
2022/05/14 11:46:39;;;;;;;14.20;3.67;;;31.60;49.00;;;;;;4996132;28;20114;-79
2022/05/14 11:49:22;;;;;;;9.85;3.63;;;31.40;48.30;;;;;;4998004;28;20038;-80
2022/05/14 11:52:07;;;;;;;8.27;2.30;;;31.20;48.90;;;;;;4988154;28;20038;-80
2022/05/14 11:54:56;;;;;;;9.70;4.03;;;31.20;49.10;;;;;;4300083;28;10001308;-81
2022/05/14 11:57:42;;;;;;;11.55;3.38;;;31.40;49.70;;;;;;4974410;28;20046;-79
2022/05/14 12:00:17;;;;;;;15.23;4.60;;;31.60;49.30;;;;;;4981000;28;20040;-80
2022/05/14 12:02:51;;;;;;;11.48;2.97;;;31.90;48.10;;;;;;4976180;28;20533;-81
2022/05/14 12:05:38;;;;;;;8.60;2.88;;;32.20;47.80;;;;;;4969239;28;20044;-80
2022/05/14 12:08:22;;;;;;;10.82;3.17;;;32.50;48.40;;;;;;4998683;28;20038;-80
2022/05/14 12:10:58;;;;;;;11.95;3.25;;;32.70;48.30;;;;;;5008865;28;20101;-80
2022/05/14 12:14:04;;;;;;;9.02;3.40;;;32.70;47.10;;;;;;4994470;28;20513;-80
2022/05/14 12:16:37;;;;;;;9.73;3.17;;;32.80;47.80;;;;;;4970265;28;20453;-80
2022/05/14 12:19:05;;;;;;;5.50;2.03;;;33.30;45.10;;;;;;4997665;28;20026;-81
2022/05/14 12:21:31;;;;;;;9.18;2.65;;;33.80;45.30;;;;;;4998897;28;20062;-80
2022/05/14 12:23:56;;;;;;;9.30;2.80;;;33.60;46.10;;;;;;4993696;28;20058;-80
2022/05/14 12:26:30;;;;;;;6.28;2.72;;;33.50;44.90;;;;;;4980190;28;20108;-80
2022/05/14 12:28:57;;;;;;;6.72;2.90;;;33.40;45.10;;;;;;4993681;28;20306;-80
2022/05/14 12:34:13;;;;;;;6.93;2.92;;;33.40;43.50;;;;;;4987351;28;20486;-80
2022/05/14 12:36:45;;;;;;;8.55;3.17;;;33.40;43.20;;;;;;4982430;28;20125;-80
2022/05/14 12:39:22;;;;;;;6.38;1.98;;;33.10;44.40;;;;;;4991898;28;20137;-80
2022/05/14 12:41:52;;;;;;;6.97;2.85;;;33.00;43.70;;;;;;4995963;28;20030;-80
2022/05/14 12:44:23;;;;;;;12.45;2.60;;;32.90;43.60;;;;;;4976668;28;20378;-80
2022/05/14 12:46:54;;;;;;;7.03;2.72;;;33.00;43.40;;;;;;4997327;28;20045;-80
2022/05/14 12:49:22;;;;;;;8.45;2.53;;;32.80;44.20;;;;;;4995998;28;20144;-80
2022/05/14 12:51:53;;;;;;;9.15;3.30;;;32.70;44.00;;;;;;4961636;28;20037;-80
2022/05/14 12:54:30;;;;;;;7.40;2.15;;;32.70;44.40;;;;;;4980319;28;20571;-80
2022/05/14 12:57:01;;;;;;;6.07;1.70;;;33.00;44.20;;;;;;4970992;28;20042;-79
2022/05/14 12:59:27;;;;;;;5.32;2.33;;;33.00;44.10;;;;;;4978209;28;20022;-78
2022/05/14 13:02:03;;;;;;;5.22;2.38;;;33.20;42.80;;;;;;4999828;28;20037;-79
2022/05/14 13:05:05;;;;;;;8.00;2.83;;;33.20;42.30;;;;;;4978559;28;20038;-80
2022/05/14 13:07:31;;;;;;;9.23;3.30;;;33.10;44.20;;;;;;4981869;28;20102;-80
2022/05/14 13:09:57;;;;;;;6.18;2.35;;;33.00;41.90;;;;;;4984993;28;20045;-79
2022/05/14 13:12:25;;;;;;;9.05;3.75;;;33.00;43.70;;;;;;4997336;28;20042;-79
2022/05/14 13:14:56;;;;;;;8.82;2.85;;;33.30;43.10;;;;;;4981751;28;20033;-79
2022/05/14 13:17:33;;;;;;;4.60;1.70;;;33.50;43.00;;;;;;4973442;28;20050;-80
2022/05/14 13:19:59;;;;;;;8.25;3.03;;;33.50;43.30;;;;;;4984336;28;20104;-80
2022/05/14 13:22:33;;;;;;;8.25;3.00;;;33.80;42.00;;;;;;4984697;28;20074;-80